| time (UTC) | temp F | wind direction | speed MPH | gust MPH | rain 1hr in | rain 24hr in | rain mn in | humidity % | barometer mb |
| 20260509180932 | 70 | 290 | 4.0 | 5.0 | 0.00 | 0.08 | 0.08 | 72 | 1005.4 |
| 20260509180428 | 70 | 257 | 5.0 | 6.0 | 0.00 | 0.08 | 0.08 | 69 | 1005.6 |
| 20260509175925 | 69 | 223 | 5.0 | 6.0 | 0.00 | 0.08 | 0.08 | 73 | 1005.5 |
| 20260509175421 | 70 | 262 | 5.0 | 6.0 | 0.00 | 0.08 | 0.08 | 71 | 1005.6 |
| 20260509174917 | 69 | 207 | 2.0 | 2.0 | 0.00 | 0.08 | 0.08 | 74 | 1005.4 |
| 20260509174413 | 69 | 269 | 5.0 | 6.0 | 0.00 | 0.08 | 0.08 | 73 | 1005.4 |
| 20260509173909 | 69 | 247 | 4.0 | 5.0 | 0.00 | 0.08 | 0.08 | 76 | 1005.3 |
| 20260509173403 | 68 | 251 | 5.0 | 6.0 | 0.00 | 0.08 | 0.08 | 72 | 1005.6 |
| 20260509172900 | 69 | 259 | 7.0 | 7.0 | 0.00 | 0.08 | 0.08 | 73 | 1005.6 |
| 20260509172357 | 68 | 255 | 3.0 | 3.0 | 0.00 | 0.08 | 0.08 | 76 | 1006.0 |
| 20260509171853 | 68 | 212 | 2.0 | 2.0 | 0.00 | 0.08 | 0.08 | 76 | 1005.8 |
| 20260509171349 | 67 | 258 | 3.0 | 3.0 | 0.00 | 0.08 | 0.08 | 76 | 1006.1 |
| 20260509170846 | 67 | 245 | 3.0 | 3.0 | 0.00 | 0.08 | 0.08 | 75 | 1006.0 |
| 20260509170341 | 67 | 268 | 3.0 | 5.0 | 0.00 | 0.08 | 0.08 | 79 | 1005.9 |
| 20260509165836 | 66 | 221 | 2.0 | 3.0 | 0.00 | 0.08 | 0.08 | 74 | 1005.9 |
| 20260509165331 | 67 | 264 | 5.0 | 7.0 | 0.00 | 0.08 | 0.08 | 80 | 1006.2 |
| 20260509164827 | 66 | 248 | 4.0 | 5.0 | 0.00 | 0.08 | 0.08 | 76 | 1006.1 |
| 20260509164323 | 67 | 293 | 5.0 | 7.0 | 0.00 | 0.08 | 0.08 | 77 | 1005.9 |
| 20260509163820 | 66 | 246 | 3.0 | 3.0 | 0.00 | 0.08 | 0.08 | 78 | 1006.0 |
| 20260509163316 | 66 | 237 | 4.0 | 5.0 | 0.00 | 0.08 | 0.08 | 78 | 1006.1 |
| 20260509162816 | 66 | 237 | 3.0 | 3.0 | 0.00 | 0.08 | 0.08 | 77 | 1006.0 |
| 20260509162309 | 66 | 215 | 2.0 | 2.0 | 0.00 | 0.08 | 0.08 | 78 | 1005.9 |
| 20260509161805 | 65 | 207 | 1.0 | 1.0 | 0.00 | 0.08 | 0.08 | 81 | 1006.0 |
| 20260509161301 | 64 | 217 | 2.0 | 2.0 | 0.00 | 0.08 | 0.08 | 78 | 1005.7 |
| 20260509160757 | 64 | 261 | 3.0 | 3.0 | 0.00 | 0.08 | 0.08 | 81 | 1005.9 |
| 20260509160253 | 64 | 254 | 5.0 | 6.0 | 0.00 | 0.08 | 0.08 | 81 | 1005.9 |
| 20260509155748 | 64 | 211 | 1.0 | 2.0 | 0.00 | 0.08 | 0.08 | 82 | 1005.9 |
| 20260509155245 | 63 | 251 | 4.0 | 6.0 | 0.00 | 0.08 | 0.08 | 82 | 1006.0 |
| 20260509154741 | 63 | 251 | 4.0 | 5.0 | 0.00 | 0.08 | 0.08 | 83 | 1005.9 |
| 20260509154239 | 64 | 258 | 3.0 | 3.0 | 0.00 | 0.08 | 0.08 | 84 | 1005.9 |
| 20260509153736 | 64 | 266 | 2.0 | 2.0 | 0.00 | 0.08 | 0.08 | 82 | 1006.0 |
| 20260509153231 | 63 | 243 | 3.0 | 3.0 | 0.00 | 0.08 | 0.08 | 81 | 1005.9 |
| 20260509152728 | 62 | 264 | 5.0 | 6.0 | 0.00 | 0.08 | 0.08 | 83 | 1006.1 |
| 20260509152225 | 61 | 255 | 4.0 | 5.0 | 0.00 | 0.08 | 0.08 | 85 | 1006.1 |
| 20260509151722 | 62 | 233 | 3.0 | 3.0 | 0.00 | 0.08 | 0.08 | 83 | 1006.2 |
| 20260509151218 | 63 | 282 | 4.0 | 5.0 | 0.00 | 0.08 | 0.08 | 86 | 1005.9 |
| 20260509150716 | 62 | 222 | 1.0 | 2.0 | 0.00 | 0.08 | 0.08 | 84 | 1005.8 |
| 20260509150214 | 62 | 210 | 2.0 | 3.0 | 0.00 | 0.08 | 0.08 | 84 | 1005.8 |
| 20260509145710 | 61 | 278 | 2.0 | 2.0 | 0.00 | 0.08 | 0.08 | 85 | 1005.8 |
| 20260509145206 | 61 | 249 | 3.0 | 3.0 | 0.00 | 0.08 | 0.08 | 86 | 1005.7 |
| 20260509144702 | 62 | 184 | 3.0 | 3.0 | 0.00 | 0.08 | 0.08 | 85 | 1005.8 |
| 20260509144159 | 61 | 262 | 3.0 | 3.0 | 0.00 | 0.08 | 0.08 | 87 | 1005.9 |
| 20260509143657 | 61 | 253 | 5.0 | 5.0 | 0.00 | 0.08 | 0.08 | 85 | 1005.8 |
| 20260509143154 | 63 | 214 | 2.0 | 2.0 | 0.00 | 0.08 | 0.08 | 86 | 1005.6 |
| 20260509142649 | 61 | 249 | 3.0 | 3.0 | 0.00 | 0.08 | 0.08 | 85 | 1005.4 |
| 20260509142147 | 61 | 280 | 3.0 | 5.0 | 0.00 | 0.08 | 0.08 | 87 | 1005.5 |
| 20260509141642 | 60 | 276 | 5.0 | 6.0 | 0.00 | 0.08 | 0.08 | 86 | 1005.6 |
| 20260509141138 | 61 | 268 | 2.0 | 2.0 | 0.00 | 0.08 | 0.08 | 88 | 1005.9 |
| 20260509140636 | 60 | 265 | 7.0 | 7.0 | 0.00 | 0.08 | 0.08 | 87 | 1005.7 |
| 20260509140134 | 59 | 143 | 0.0 | 0.0 | 0.00 | 0.08 | 0.08 | 94 | 1005.8 |
| 20260509135630 | 58 | 223 | 0.0 | 0.0 | 0.00 | 0.08 | 0.08 | 94 | 1005.8 |
| 20260509135128 | 58 | 203 | 0.0 | 0.0 | 0.00 | 0.08 | 0.08 | 96 | 1005.7 |
| 20260509134625 | 56 | 262 | 0.0 | 0.0 | 0.00 | 0.08 | 0.08 | 98 | 1005.7 |
| 20260509134122 | 57 | 224 | 0.0 | 0.0 | 0.00 | 0.08 | 0.08 | 99 | 1005.4 |
| 20260509133620 | 56 | 219 | 0.0 | 0.0 | 0.00 | 0.08 | 0.08 | 99 | 1005.5 |
| 20260509133117 | 56 | 252 | 0.0 | 0.0 | 0.00 | 0.08 | 0.08 | 99 | 1005.6 |
| 20260509132615 | 55 | 222 | 0.0 | 0.0 | 0.00 | 0.08 | 0.08 | 99 | 1005.4 |
| 20260509132113 | 55 | 244 | 0.0 | 0.0 | 0.00 | 0.08 | 0.08 | 99 | 1005.7 |
| 20260509131609 | 55 | 198 | 0.0 | 0.0 | 0.00 | 0.08 | 0.08 | 99 | 1005.7 |
| 20260509131106 | 55 | 190 | 0.0 | 0.0 | 0.00 | 0.08 | 0.08 | 99 | 1005.8 |
| 20260509130602 | 54 | 231 | 0.0 | 0.0 | 0.00 | 0.08 | 0.08 | 99 | 1005.8 |
| 20260509130058 | 55 | 244 | 0.0 | 0.0 | 0.00 | 0.08 | 0.08 | 99 | 1005.7 |
| 20260509125555 | 55 | 247 | 0.0 | 0.0 | 0.00 | 0.08 | 0.08 | 99 | 1005.7 |
| 20260509125051 | 55 | 189 | 0.0 | 0.0 | 0.00 | 0.08 | 0.08 | 99 | 1005.5 |
| 20260509124548 | 54 | 214 | 0.0 | 0.0 | 0.00 | 0.08 | 0.08 | 99 | 1005.6 |
| 20260509124045 | 54 | 187 | 0.0 | 0.0 | 0.00 | 0.08 | 0.08 | 99 | 1005.6 |
| 20260509123543 | 54 | 180 | 0.0 | 0.0 | 0.00 | 0.08 | 0.08 | 99 | 1005.6 |
| 20260509123039 | 54 | 197 | 0.0 | 0.0 | 0.00 | 0.08 | 0.08 | 99 | 1005.6 |
| 20260509122535 | 54 | 219 | 0.0 | 0.0 | 0.00 | 0.08 | 0.08 | 99 | 1005.7 |
| 20260509122033 | 54 | 220 | 0.0 | 0.0 | 0.00 | 0.08 | 0.08 | 99 | 1005.4 |
| 20260509121529 | 54 | 224 | 0.0 | 0.0 | 0.00 | 0.08 | 0.08 | 99 | 1005.4 |
| 20260509121027 | 53 | 168 | 0.0 | 0.0 | 0.00 | 0.08 | 0.08 | 99 | 1005.3 |
| 20260509120525 | 53 | 152 | 0.0 | 0.0 | 0.00 | 0.08 | 0.08 | 99 | 1005.3 |
| 20260509120023 | 53 | 171 | 0.0 | 0.0 | 0.00 | 0.08 | 0.08 | 99 | 1005.3 |
| 20260509115520 | 53 | 181 | 0.0 | 0.0 | 0.00 | 0.08 | 0.08 | 99 | 1005.2 |
| 20260509115017 | 52 | 161 | 0.0 | 0.0 | 0.00 | 0.08 | 0.08 | 99 | 1005.2 |
| 20260509114515 | 52 | 169 | 0.0 | 0.0 | 0.00 | 0.08 | 0.08 | 99 | 1005.2 |
| 20260509114014 | 51 | 157 | 0.0 | 0.0 | 0.00 | 0.08 | 0.08 | 99 | 1005.3 |
| 20260509113512 | 51 | 162 | 0.0 | 0.0 | 0.00 | 0.08 | 0.08 | 99 | 1005.3 |
| 20260509113010 | 51 | 145 | 0.0 | 0.0 | 0.00 | 0.08 | 0.08 | 99 | 1005.3 |
| 20260509112506 | 51 | 143 | 0.0 | 0.0 | 0.00 | 0.08 | 0.08 | 99 | 1005.1 |
| 20260509112002 | 51 | 143 | 0.0 | 0.0 | 0.00 | 0.08 | 0.08 | 99 | 1005.2 |
| 20260509111500 | 51 | 143 | 0.0 | 0.0 | 0.00 | 0.08 | 0.08 | 99 | 1005.2 |
| 20260509110957 | 51 | 142 | 0.0 | 0.0 | 0.00 | 0.08 | 0.08 | 99 | 1005.1 |
| 20260509110453 | 51 | 143 | 0.0 | 0.0 | 0.00 | 0.08 | 0.08 | 99 | 1005.1 |
| 20260509105951 | 51 | 143 | 0.0 | 0.0 | 0.00 | 0.08 | 0.08 | 99 | 1005.2 |
| 20260509105449 | 51 | 143 | 0.0 | 0.0 | 0.00 | 0.08 | 0.08 | 99 | 1004.9 |
| 20260509104946 | 51 | 143 | 0.0 | 0.0 | 0.00 | 0.08 | 0.08 | 99 | 1004.9 |
| 20260509104443 | 52 | 144 | 0.0 | 0.0 | 0.00 | 0.08 | 0.08 | 99 | 1004.8 |
| 20260509103940 | 52 | 143 | 0.0 | 0.0 | 0.00 | 0.08 | 0.08 | 99 | 1005.1 |
| 20260509103438 | 53 | 168 | 0.0 | 0.0 | 0.00 | 0.08 | 0.08 | 99 | 1004.8 |
| 20260509102936 | 53 | 162 | 0.0 | 0.0 | 0.00 | 0.08 | 0.08 | 99 | 1004.8 |
| 20260509102432 | 53 | 179 | 0.0 | 0.0 | 0.00 | 0.08 | 0.08 | 99 | 1005.2 |
| 20260509101928 | 53 | 183 | 0.0 | 0.0 | 0.00 | 0.08 | 0.08 | 99 | 1004.9 |
| 20260509101425 | 53 | 146 | 0.0 | 0.0 | 0.00 | 0.08 | 0.08 | 99 | 1004.9 |
| 20260509100923 | 53 | 152 | 0.0 | 0.0 | 0.00 | 0.08 | 0.08 | 99 | 1004.7 |
| 20260509100420 | 53 | 147 | 0.0 | 0.0 | 0.00 | 0.08 | 0.08 | 99 | 1004.7 |
| 20260509095916 | 53 | 147 | 0.0 | 0.0 | 0.00 | 0.08 | 0.08 | 99 | 1004.7 |
| 20260509095414 | 53 | 158 | 0.0 | 0.0 | 0.00 | 0.08 | 0.08 | 99 | 1004.8 |
| 20260509094910 | 53 | 165 | 0.0 | 0.0 | 0.00 | 0.08 | 0.08 | 99 | 1004.9 |
| 20260509094407 | 53 | 168 | 0.0 | 0.0 | 0.00 | 0.08 | 0.08 | 99 | 1005.0 |
| 20260509093905 | 53 | 183 | 0.0 | 0.0 | 0.00 | 0.08 | 0.08 | 99 | 1004.6 |
| 20260509093402 | 53 | 185 | 0.0 | 0.0 | 0.00 | 0.08 | 0.08 | 99 | 1004.8 |
| 20260509092900 | 53 | 169 | 0.0 | 0.0 | 0.00 | 0.08 | 0.08 | 99 | 1005.0 |
| 20260509092357 | 53 | 174 | 0.0 | 0.0 | 0.00 | 0.08 | 0.08 | 99 | 1005.1 |
| 20260509091856 | 53 | 167 | 0.0 | 0.0 | 0.00 | 0.08 | 0.08 | 99 | 1005.0 |
| 20260509091352 | 53 | 167 | 0.0 | 0.0 | 0.00 | 0.08 | 0.08 | 99 | 1004.9 |
| 20260509090850 | 53 | 166 | 0.0 | 0.0 | 0.00 | 0.08 | 0.08 | 99 | 1004.9 |
| 20260509090347 | 53 | 232 | 0.0 | 0.0 | 0.00 | 0.08 | 0.08 | 99 | 1004.7 |
| 20260509085844 | 54 | 166 | 0.0 | 0.0 | 0.00 | 0.08 | 0.08 | 99 | 1005.0 |
| 20260509085341 | 54 | 259 | 0.0 | 0.0 | 0.00 | 0.08 | 0.08 | 99 | 1005.2 |
| 20260509084837 | 54 | 220 | 0.0 | 0.0 | 0.00 | 0.08 | 0.08 | 99 | 1005.2 |
| 20260509084334 | 54 | 254 | 0.0 | 0.0 | 0.00 | 0.08 | 0.08 | 99 | 1005.2 |
| 20260509083832 | 54 | 243 | 0.0 | 0.0 | 0.00 | 0.08 | 0.08 | 99 | 1005.4 |
| 20260509083329 | 54 | 183 | 0.0 | 0.0 | 0.00 | 0.08 | 0.08 | 99 | 1005.1 |
| 20260509082825 | 54 | 237 | 0.0 | 0.0 | 0.00 | 0.08 | 0.08 | 99 | 1005.3 |
| 20260509082322 | 54 | 282 | 0.0 | 0.0 | 0.00 | 0.08 | 0.08 | 99 | 1005.2 |
| 20260509081820 | 54 | 211 | 0.0 | 0.0 | 0.07 | 0.08 | 0.08 | 99 | 1005.0 |
| 20260509081316 | 54 | 177 | 0.0 | 0.0 | 0.07 | 0.08 | 0.08 | 99 | 1005.2 |
| 20260509080815 | 54 | 197 | 0.0 | 0.0 | 0.00 | 0.07 | 0.07 | 99 | 1005.3 |
| 20260509080312 | 54 | 201 | 0.0 | 0.0 | 0.00 | 0.07 | 0.07 | 99 | 1005.2 |
| 20260509075810 | 54 | 189 | 0.0 | 0.0 | 0.00 | 0.07 | 0.07 | 99 | 1005.3 |
| 20260509075307 | 54 | 183 | 0.0 | 0.0 | 0.00 | 0.07 | 0.07 | 99 | 1005.4 |
| 20260509074804 | 54 | 206 | 0.0 | 0.0 | 0.00 | 0.07 | 0.07 | 99 | 1005.6 |
| 20260509074302 | 54 | 199 | 0.0 | 0.0 | 0.00 | 0.07 | 0.07 | 99 | 1005.3 |
| 20260509073758 | 54 | 191 | 0.0 | 0.0 | 0.00 | 0.07 | 0.07 | 99 | 1005.1 |
| 20260509073254 | 54 | 193 | 0.0 | 0.0 | 0.00 | 0.07 | 0.07 | 99 | 1005.5 |
| 20260509072751 | 54 | 194 | 0.0 | 0.0 | 0.00 | 0.07 | 0.07 | 99 | 1005.3 |
| 20260509072248 | 54 | 191 | 0.0 | 0.0 | 0.00 | 0.07 | 0.07 | 99 | 1005.3 |
| 20260509071744 | 55 | 200 | 0.0 | 0.0 | 0.00 | 0.07 | 0.07 | 99 | 1005.4 |
| 20260509071241 | 55 | 193 | 0.0 | 0.0 | 0.00 | 0.07 | 0.07 | 99 | 1005.3 |
| 20260509070738 | 55 | 206 | 0.0 | 0.0 | 0.05 | 0.07 | 0.07 | 99 | 1005.6 |
| 20260509070235 | 55 | 224 | 0.0 | 0.0 | 0.05 | 0.07 | 0.07 | 99 | 1005.6 |
| 20260509065731 | 55 | 181 | 0.0 | 0.0 | 0.00 | 0.06 | 0.06 | 99 | 1005.6 |
| 20260509065227 | 55 | 190 | 0.0 | 0.0 | 0.00 | 0.06 | 0.06 | 99 | 1005.7 |
| 20260509064724 | 55 | 197 | 0.0 | 0.0 | 0.00 | 0.06 | 0.06 | 99 | 1006.0 |
| 20260509064222 | 55 | 211 | 0.0 | 0.0 | 0.00 | 0.06 | 0.06 | 99 | 1005.7 |
| 20260509063719 | 55 | 186 | 0.0 | 0.0 | 0.00 | 0.06 | 0.06 | 99 | 1005.9 |
| 20260509063215 | 55 | 189 | 0.0 | 0.0 | 0.07 | 0.06 | 0.06 | 99 | 1005.8 |
| 20260509062713 | 55 | 197 | 0.0 | 0.0 | 0.12 | 0.06 | 0.06 | 99 | 1005.9 |
| 20260509062210 | 55 | 219 | 0.0 | 0.0 | 0.05 | 0.05 | 0.05 | 99 | 1006.1 |
| 20260509061707 | 55 | 227 | 0.0 | 0.0 | 0.07 | 0.04 | 0.04 | 99 | 1006.2 |
| 20260509061204 | 55 | 181 | 0.0 | 0.0 | 0.07 | 0.04 | 0.04 | 99 | 1006.2 |
| 20260509060701 | 55 | 187 | 0.0 | 0.0 | 0.00 | 0.03 | 0.03 | 99 | 1006.3 |
| 20260509060157 | 55 | 172 | 0.0 | 0.0 | 0.00 | 0.03 | 0.03 | 99 | 1006.1 |
| 20260509055653 | 55 | 240 | 0.0 | 0.0 | 0.00 | 0.03 | 0.03 | 99 | 1006.4 |
| 20260509055149 | 55 | 219 | 0.0 | 0.0 | 0.07 | 0.03 | 0.03 | 99 | 1006.4 |
| 20260509054646 | 55 | 187 | 0.0 | 0.0 | 0.07 | 0.03 | 0.03 | 99 | 1006.7 |
| 20260509054144 | 55 | 213 | 0.0 | 0.0 | 0.05 | 0.02 | 0.02 | 99 | 1006.7 |
| 20260509053642 | 55 | 242 | 0.0 | 0.0 | 0.05 | 0.02 | 0.02 | 99 | 1006.9 |
| 20260509053138 | 55 | 237 | 0.0 | 0.0 | 0.00 | 0.01 | 0.01 | 99 | 1006.9 |
| 20260509052636 | 55 | 189 | 0.0 | 0.0 | 0.00 | 0.01 | 0.01 | 99 | 1006.9 |
| 20260509052133 | 55 | 201 | 0.0 | 0.0 | 0.00 | 0.01 | 0.01 | 99 | 1006.8 |
| 20260509051631 | 55 | 233 | 0.0 | 0.0 | 0.00 | 0.01 | 0.01 | 99 | 1006.7 |
| 20260509051128 | 55 | 258 | 0.0 | 0.0 | 0.00 | 0.01 | 0.01 | 99 | 1006.7 |
| 20260509050626 | 55 | 241 | 0.0 | 0.0 | 0.00 | 0.01 | 0.01 | 99 | 1006.6 |
| 20260509050121 | 54 | 265 | 0.0 | 0.0 | 0.00 | 0.01 | 0.01 | 99 | 1006.6 |
| 20260509045620 | 54 | 245 | 0.0 | 0.0 | 0.00 | 0.01 | 0.01 | 99 | 1006.7 |
| 20260509045116 | 54 | 178 | 0.0 | 0.0 | 0.00 | 0.01 | 0.01 | 99 | 1006.6 |
| 20260509044613 | 54 | 176 | 0.0 | 0.0 | 0.00 | 0.01 | 0.01 | 99 | 1006.6 |
| 20260509044110 | 54 | 171 | 0.0 | 0.0 | 0.00 | 0.01 | 0.01 | 99 | 1006.6 |
| 20260509043607 | 54 | 182 | 0.0 | 0.0 | 0.00 | 0.01 | 0.01 | 99 | 1006.6 |
| 20260509043102 | 54 | 161 | 0.0 | 0.0 | 0.00 | 0.01 | 0.01 | 99 | 1006.9 |
| 20260509042559 | 54 | 173 | 0.0 | 0.0 | 0.00 | 0.01 | 0.01 | 99 | 1006.8 |
| 20260509042055 | 54 | 171 | 0.0 | 0.0 | 0.07 | 0.01 | 0.01 | 99 | 1006.8 |
| 20260509041552 | 54 | 201 | 0.0 | 0.0 | 0.07 | 0.01 | 0.01 | 99 | 1006.5 |
| 20260509041049 | 54 | 193 | 0.0 | 0.0 | 0.00 | 0.00 | 0.00 | 99 | 1006.8 |
| 20260509040548 | 54 | 173 | 0.0 | 0.0 | 0.05 | 0.00 | 0.00 | 99 | 1006.9 |
| 20260509040044 | 54 | 189 | 0.0 | 0.0 | 0.05 | 0.51 | 0.51 | 99 | 1006.9 |
| 20260509035541 | 54 | 172 | 0.0 | 0.0 | 0.00 | 0.50 | 0.50 | 99 | 1006.8 |
| 20260509035038 | 54 | 189 | 0.0 | 0.0 | 0.00 | 0.50 | 0.50 | 99 | 1006.9 |
| 20260509034536 | 54 | 197 | 0.0 | 0.0 | 0.00 | 0.50 | 0.50 | 99 | 1006.6 |
| 20260509034033 | 54 | 170 | 0.0 | 0.0 | 0.00 | 0.50 | 0.50 | 99 | 1006.8 |
| 20260509033530 | 54 | 179 | 0.0 | 0.0 | 0.00 | 0.50 | 0.50 | 99 | 1006.9 |
| 20260509033027 | 54 | 164 | 0.0 | 0.0 | 0.00 | 0.50 | 0.50 | 99 | 1006.7 |
| 20260509032524 | 54 | 174 | 0.0 | 0.0 | 0.00 | 0.50 | 0.50 | 99 | 1006.7 |
| 20260509032021 | 54 | 175 | 0.0 | 0.0 | 0.00 | 0.50 | 0.50 | 99 | 1006.6 |
| 20260509031519 | 54 | 187 | 0.0 | 0.0 | 0.00 | 0.50 | 0.50 | 99 | 1006.6 |
| 20260509031016 | 54 | 200 | 0.0 | 0.0 | 0.07 | 0.50 | 0.50 | 99 | 1006.6 |
| 20260509030514 | 54 | 199 | 0.0 | 0.0 | 0.07 | 0.50 | 0.50 | 99 | 1006.7 |
| 20260509030010 | 54 | 223 | 0.0 | 0.0 | 0.05 | 0.49 | 0.49 | 99 | 1006.8 |
| 20260509025506 | 54 | 179 | 0.0 | 0.0 | 0.05 | 0.49 | 0.49 | 99 | 1006.5 |
| 20260509025002 | 54 | 176 | 0.0 | 0.0 | 0.00 | 0.48 | 0.48 | 99 | 1006.9 |
| 20260509024458 | 54 | 185 | 0.0 | 0.0 | 0.00 | 0.48 | 0.48 | 99 | 1006.9 |
| 20260509023954 | 54 | 176 | 0.0 | 0.0 | 0.00 | 0.48 | 0.48 | 99 | 1006.9 |
| 20260509023452 | 54 | 196 | 0.0 | 0.0 | 0.07 | 0.48 | 0.48 | 99 | 1007.0 |
| 20260509022949 | 54 | 188 | 0.0 | 0.0 | 0.07 | 0.48 | 0.48 | 99 | 1007.1 |
| 20260509022446 | 54 | 185 | 0.0 | 0.0 | 0.00 | 0.47 | 0.47 | 99 | 1007.0 |
| 20260509021943 | 54 | 207 | 0.0 | 0.0 | 0.00 | 0.47 | 0.47 | 99 | 1007.1 |
| 20260509021440 | 54 | 220 | 0.0 | 0.0 | 0.00 | 0.47 | 0.47 | 99 | 1007.2 |
| 20260509020937 | 54 | 221 | 0.0 | 0.0 | 0.05 | 0.47 | 0.47 | 99 | 1007.0 |
| 20260509020436 | 55 | 180 | 0.0 | 0.0 | 0.05 | 0.47 | 0.47 | 99 | 1006.9 |
| 20260509015932 | 55 | 247 | 0.0 | 0.0 | 0.12 | 0.47 | 0.47 | 99 | 1007.1 |
| 20260509015431 | 55 | 249 | 0.0 | 0.0 | 0.07 | 0.46 | 0.46 | 99 | 1007.1 |
| 20260509014927 | 55 | 244 | 0.0 | 0.0 | 0.05 | 0.45 | 0.45 | 99 | 1007.0 |
| 20260509014424 | 55 | 220 | 3.0 | 3.0 | 0.05 | 0.45 | 0.45 | 99 | 1007.1 |
| 20260509013920 | 55 | 243 | 2.0 | 2.0 | 0.00 | 0.44 | 0.44 | 99 | 1007.1 |
| 20260509013417 | 55 | 201 | 0.0 | 0.0 | 0.07 | 0.44 | 0.44 | 99 | 1006.8 |
| 20260509012913 | 55 | 194 | 0.0 | 0.0 | 0.07 | 0.44 | 0.44 | 99 | 1006.9 |
| 20260509012410 | 55 | 248 | 0.0 | 1.0 | 0.00 | 0.43 | 0.43 | 99 | 1006.9 |
| 20260509011907 | 55 | 200 | 1.0 | 1.0 | 0.00 | 0.43 | 0.43 | 99 | 1006.8 |
| 20260509011404 | 55 | 236 | 0.0 | 1.0 | 0.00 | 0.43 | 0.43 | 99 | 1006.9 |
| 20260509010902 | 55 | 244 | 0.0 | 0.0 | 0.05 | 0.43 | 0.43 | 99 | 1006.7 |
| 20260509010400 | 55 | 245 | 0.0 | 0.0 | 0.05 | 0.43 | 0.43 | 99 | 1007.1 |
| 20260509005856 | 55 | 247 | 1.0 | 2.0 | 0.07 | 0.42 | 0.42 | 99 | 1006.8 |
| 20260509005354 | 55 | 243 | 1.0 | 2.0 | 0.07 | 0.42 | 0.42 | 99 | 1006.9 |
| 20260509004849 | 55 | 241 | 0.0 | 0.0 | 0.07 | 0.41 | 0.41 | 99 | 1007.1 |
| 20260509004346 | 55 | 243 | 0.0 | 0.0 | 0.07 | 0.41 | 0.41 | 99 | 1007.0 |
| 20260509003843 | 55 | 255 | 0.0 | 0.0 | 0.05 | 0.40 | 0.40 | 99 | 1006.8 |
| 20260509003341 | 55 | 220 | 0.0 | 0.0 | 0.05 | 0.40 | 0.40 | 99 | 1006.9 |
| 20260509002838 | 55 | 228 | 0.0 | 0.0 | 0.00 | 0.39 | 0.39 | 99 | 1006.8 |
| 20260509002335 | 55 | 204 | 0.0 | 0.0 | 0.07 | 0.39 | 0.39 | 99 | 1006.7 |
| 20260509001833 | 55 | 217 | 0.0 | 0.0 | 0.07 | 0.39 | 0.39 | 99 | 1007.0 |
| 20260509001328 | 55 | 186 | 0.0 | 0.0 | 0.05 | 0.38 | 0.38 | 99 | 1007.0 |
| 20260509000826 | 55 | 204 | 0.0 | 0.0 | 0.05 | 0.38 | 0.38 | 99 | 1006.8 |
| 20260509000325 | 55 | 250 | 0.0 | 0.0 | 0.17 | 0.38 | 0.38 | 99 | 1007.1 |
| 20260508235820 | 55 | 268 | 0.0 | 0.0 | 0.19 | 0.37 | 0.37 | 99 | 1006.8 |
| 20260508235317 | 55 | 204 | 0.0 | 0.0 | 0.12 | 0.35 | 0.35 | 99 | 1007.0 |
| 20260508234814 | 55 | 191 | 0.0 | 0.0 | 0.17 | 0.34 | 0.34 | 99 | 1007.2 |
| 20260508234310 | 55 | 255 | 0.0 | 0.0 | 0.19 | 0.33 | 0.33 | 99 | 1007.4 |
| 20260508233809 | 55 | 227 | 0.0 | 0.0 | 0.12 | 0.32 | 0.32 | 99 | 1007.4 |
| 20260508233308 | 55 | 184 | 0.0 | 0.0 | 0.12 | 0.31 | 0.31 | 99 | 1007.0 |
| 20260508232805 | 55 | 189 | 0.0 | 0.0 | 0.12 | 0.30 | 0.30 | 99 | 1007.2 |
| 20260508232301 | 55 | 190 | 0.0 | 0.0 | 0.14 | 0.29 | 0.29 | 99 | 1007.1 |
| 20260508231800 | 55 | 195 | 0.0 | 0.0 | 0.07 | 0.28 | 0.28 | 99 | 1007.2 |
| 20260508231255 | 55 | 186 | 0.0 | 0.0 | 0.05 | 0.27 | 0.27 | 99 | 1007.1 |
| 20260508230752 | 55 | 172 | 0.0 | 0.0 | 0.12 | 0.27 | 0.27 | 99 | 1006.9 |
| 20260508230248 | 55 | 171 | 0.0 | 0.0 | 0.19 | 0.26 | 0.26 | 99 | 1007.0 |
| 20260508225746 | 55 | 170 | 0.0 | 0.0 | 0.28 | 0.25 | 0.25 | 99 | 1007.3 |
| 20260508225242 | 55 | 157 | 0.0 | 0.0 | 0.24 | 0.23 | 0.23 | 99 | 1007.6 |
| 20260508224740 | 55 | 192 | 0.0 | 0.0 | 0.12 | 0.21 | 0.21 | 99 | 1007.8 |
| 20260508224238 | 55 | 183 | 0.0 | 0.0 | 0.05 | 0.19 | 0.19 | 98 | 1007.7 |
| 20260508223735 | 55 | 160 | 0.0 | 0.0 | 0.05 | 0.19 | 0.19 | 98 | 1007.3 |
| 20260508223232 | 55 | 149 | 0.0 | 0.0 | 0.07 | 0.18 | 0.18 | 98 | 1007.4 |
| 20260508222730 | 55 | 144 | 0.0 | 0.0 | 0.12 | 0.18 | 0.18 | 98 | 1007.3 |
| 20260508222227 | 55 | 144 | 0.0 | 0.0 | 0.19 | 0.17 | 0.17 | 98 | 1007.2 |
| 20260508221723 | 55 | 144 | 0.0 | 0.0 | 0.19 | 0.16 | 0.16 | 98 | 1007.6 |
| 20260508221219 | 55 | 144 | 0.0 | 0.0 | 0.12 | 0.15 | 0.15 | 98 | 1007.4 |
| 20260508220715 | 56 | 154 | 0.0 | 0.0 | 0.12 | 0.14 | 0.14 | 98 | 1007.3 |
| 20260508220212 | 56 | 151 | 0.0 | 0.0 | 0.12 | 0.13 | 0.13 | 97 | 1007.4 |
| 20260508215708 | 56 | 168 | 0.0 | 0.0 | 0.17 | 0.12 | 0.12 | 97 | 1007.6 |
| 20260508215205 | 56 | 172 | 0.0 | 0.0 | 0.24 | 0.11 | 0.11 | 97 | 1007.6 |
| 20260508214702 | 56 | 171 | 0.0 | 0.0 | 0.24 | 0.09 | 0.09 | 97 | 1007.6 |
| 20260508214200 | 56 | 178 | 0.0 | 0.0 | 0.19 | 0.07 | 0.07 | 96 | 1007.7 |
| 20260508213656 | 56 | 155 | 0.0 | 0.0 | 0.19 | 0.06 | 0.06 | 96 | 1007.8 |
| 20260508213152 | 57 | 161 | 0.0 | 0.0 | 0.12 | 0.04 | 0.04 | 95 | 1007.7 |
| 20260508212649 | 57 | 163 | 0.0 | 0.0 | 0.05 | 0.03 | 0.03 | 94 | 1007.3 |
| 20260508212146 | 57 | 142 | 0.0 | 0.0 | 0.00 | 0.02 | 0.02 | 93 | 1007.3 |
| 20260508211641 | 57 | 136 | 0.0 | 0.0 | 0.07 | 0.02 | 0.02 | 92 | 1007.1 |
| 20260508211137 | 57 | 148 | 0.0 | 0.0 | 0.07 | 0.02 | 0.02 | 90 | 1007.1 |
| 20260508210634 | 58 | 114 | 0.0 | 1.0 | 0.00 | 0.01 | 0.01 | 88 | 1006.9 |
| 20260508210132 | 59 | 136 | 0.0 | 0.0 | 0.00 | 0.01 | 0.01 | 86 | 1007.1 |
| 20260508205629 | 60 | 147 | 0.0 | 0.0 | 0.05 | 0.01 | 0.01 | 83 | 1007.2 |
| 20260508205125 | 60 | 149 | 0.0 | 0.0 | 0.05 | 0.01 | 0.01 | 81 | 1007.1 |
| 20260508204621 | 60 | 154 | 0.0 | 0.0 | 0.00 | 0.00 | 0.00 | 77 | 1007.0 |
| 20260508204117 | 61 | 189 | 1.0 | 1.0 | 0.00 | 0.00 | 0.00 | 77 | 1007.2 |
| 20260508203614 | 62 | 186 | 1.0 | 1.0 | 0.00 | 0.00 | 0.00 | 76 | 1006.9 |
| 20260508203110 | 62 | 155 | 0.0 | 1.0 | 0.00 | 0.00 | 0.00 | 72 | 1006.9 |
| 20260508202606 | 63 | 193 | 2.0 | 2.0 | 0.00 | 0.00 | 0.00 | 70 | 1006.9 |
| 20260508202104 | 63 | 182 | 1.0 | 1.0 | 0.00 | 0.00 | 0.00 | 69 | 1006.8 |
| 20260508201600 | 63 | 160 | 0.0 | 0.0 | 0.00 | 0.00 | 0.00 | 67 | 1006.9 |
| 20260508201057 | 64 | 224 | 2.0 | 2.0 | 0.00 | 0.00 | 0.00 | 64 | 1007.1 |
| 20260508200554 | 63 | 200 | 1.0 | 1.0 | 0.00 | 0.00 | 0.00 | 67 | 1007.2 |
| 20260508200049 | 64 | 259 | 3.0 | 3.0 | 0.00 | 0.00 | 0.00 | 61 | 1006.9 |
| 20260508195546 | 64 | 232 | 3.0 | 3.0 | 0.00 | 0.00 | 0.00 | 61 | 1007.3 |
| 20260508195043 | 64 | 246 | 3.0 | 3.0 | 0.00 | 0.00 | 0.00 | 62 | 1007.0 |
| 20260508194540 | 64 | 248 | 3.0 | 3.0 | 0.00 | 0.00 | 0.00 | 63 | 1007.0 |
| 20260508194037 | 64 | 247 | 3.0 | 3.0 | 0.00 | 0.00 | 0.00 | 60 | 1007.4 |
| 20260508193533 | 64 | 165 | 2.0 | 2.0 | 0.00 | 0.00 | 0.00 | 66 | 1007.4 |
| 20260508193030 | 64 | 208 | 2.0 | 2.0 | 0.00 | 0.00 | 0.00 | 66 | 1007.6 |
| 20260508192527 | 65 | 188 | 2.0 | 2.0 | 0.00 | 0.00 | 0.00 | 63 | 1007.5 |
| 20260508192024 | 65 | 173 | 2.0 | 2.0 | 0.00 | 0.00 | 0.00 | 64 | 1007.5 |
| 20260508191521 | 65 | 199 | 1.0 | 1.0 | 0.00 | 0.00 | 0.00 | 67 | 1007.7 |
| 20260508191017 | 63 | 248 | 2.0 | 2.0 | 0.00 | 0.00 | 0.00 | 66 | 1007.9 |
| 20260508190515 | 63 | 179 | 0.0 | 1.0 | 0.00 | 0.00 | 0.00 | 67 | 1007.9 |
| 20260508190011 | 64 | 203 | 1.0 | 1.0 | 0.00 | 0.00 | 0.00 | 67 | 1007.8 |
| 20260508185508 | 64 | 202 | 1.0 | 1.0 | 0.00 | 0.00 | 0.00 | 65 | 1008.0 |
| 20260508185006 | 63 | 180 | 1.0 | 1.0 | 0.00 | 0.00 | 0.00 | 66 | 1008.2 |
| 20260508184504 | 63 | 249 | 2.0 | 2.0 | 0.00 | 0.00 | 0.00 | 66 | 1008.3 |
| 20260508184000 | 63 | 225 | 1.0 | 2.0 | 0.00 | 0.00 | 0.00 | 66 | 1008.7 |
| 20260508183456 | 63 | 239 | 2.0 | 2.0 | 0.00 | 0.00 | 0.00 | 64 | 1008.3 |
| 20260508182951 | 62 | 272 | 3.0 | 3.0 | 0.00 | 0.00 | 0.00 | 65 | 1008.4 |
| 20260508182449 | 62 | 201 | 1.0 | 1.0 | 0.00 | 0.00 | 0.00 | 67 | 1008.7 |
| 20260508181944 | 62 | 242 | 3.0 | 3.0 | 0.00 | 0.00 | 0.00 | 66 | 1008.6 |
| 20260508181441 | 62 | 247 | 2.0 | 2.0 | 0.00 | 0.00 | 0.00 | 67 | 1008.7 |